Airport View

Enter AWOS ICAO identifier for current METAR.

ex. KFNL

KVAY 262354Z AUTO 28006KT 10SM CLR 06/M03 A2984 RMK AO2 SLP104 T00611028 10083 20061 53010

27 Jan 2020 00:23

Frequency: 119.325

Phone: 609-267-1176

Other Area AWOS: KPNE - KWRI - N81 - KPHL

TAF KPNE 262320Z 2700/2724 28007KT P6SM BKN050 FM270200 26005KT P6SM FEW045 FEW100 FM270800 24006KT P6SM BKN110 FM271600 28011G18KT P6SM SCT040 OVC050 FM272200 29007KT P6SM BKN050